Time,TemperatureF,DewpointF,PressureIn,WindDirection,WindDirectionDegrees,WindSpeedMPH,WindSpeedGustMPH,Humidity,HourlyPrecipIn,Conditions,Clouds,dailyrainin,SoftwareType,DateUTC
2013-05-16 00:01:00,61.6,47.7,29.91,South,180,0.0,5.0,60,0.00,,,0.00,WUHU21623XXSP,2013-05-16 07:01:00,
2013-05-16 00:06:00,61.0,47.1,29.91,South,180,0.0,5.0,60,0.00,,,0.00,WUHU21623XXSP,2013-05-16 07:06:00,
2013-05-16 00:11:00,60.7,47.7,29.91,South,180,4.0,5.0,62,0.00,,,0.00,WUHU21623XXSP,2013-05-16 07:11:00,
2013-05-16 00:16:00,60.5,47.1,29.91,SSE,157,0.0,4.5,61,0.00,,,0.00,WUHU21623XXSP,2013-05-16 07:16:00,
2013-05-16 00:21:00,60.5,47.1,29.91,South,180,0.0,5.0,61,0.00,,,0.00,WUHU21623XXSP,2013-05-16 07:21:00,
2013-05-16 00:26:00,60.5,47.1,29.91,South,180,0.0,5.0,61,0.00,,,0.00,WUHU21623XXSP,2013-05-16 07:26:00,
2013-05-16 00:31:00,60.3,46.9,29.91,SSE,157,0.0,4.0,61,0.00,,,0.00,WUHU21623XXSP,2013-05-16 07:31:00,
2013-05-16 00:36:00,60.1,47.2,29.91,South,180,0.0,4.0,62,0.00,,,0.00,WUHU21623XXSP,2013-05-16 07:36:00,
2013-05-16 00:41:00,59.9,47.0,29.91,South,180,0.0,3.3,62,0.00,,,0.00,WUHU21623XXSP,2013-05-16 07:41:00,
2013-05-16 00:46:00,59.6,47.1,29.91,SSE,157,0.0,0.0,63,0.00,,,0.00,WUHU21623XXSP,2013-05-16 07:46:00,
2013-05-16 00:51:00,59.6,47.1,29.91,South,180,0.0,3.3,63,0.00,,,0.00,WUHU21623XXSP,2013-05-16 07:51:00,
2013-05-16 00:56:00,59.6,47.1,29.91,SSE,157,0.0,3.3,63,0.00,,,0.00,WUHU21623XXSP,2013-05-16 07:56:00,
2013-05-16 01:01:00,59.6,47.1,29.91,SSE,157,0.0,0.0,63,0.00,,,0.00,WUHU21623XXSP,2013-05-16 08:01:00,
2013-05-16 01:06:00,59.6,47.1,29.91,SSE,157,0.0,0.0,63,0.00,,,0.00,WUHU21623XXSP,2013-05-16 08:06:00,
2013-05-16 01:11:00,59.2,47.2,29.91,South,180,0.0,3.3,64,0.00,,,0.00,WUHU21623XXSP,2013-05-16 08:11:00,
2013-05-16 01:16:00,59.2,47.2,29.91,South,180,0.0,3.3,64,0.00,,,0.00,WUHU21623XXSP,2013-05-16 08:16:00,
2013-05-16 01:21:00,59.2,47.2,29.91,South,180,0.0,4.0,64,0.00,,,0.00,WUHU21623XXSP,2013-05-16 08:21:00,
2013-05-16 01:26:00,59.0,47.0,29.91,South,180,0.0,7.3,64,0.00,,,0.00,WUHU21623XXSP,2013-05-16 08:26:00,
2013-05-16 01:31:00,58.9,47.3,29.91,South,180,0.0,7.3,65,0.00,,,0.00,WUHU21623XXSP,2013-05-16 08:31:00,
2013-05-16 01:36:00,58.9,47.3,29.91,South,180,0.0,1.8,65,0.00,,,0.00,WUHU21623XXSP,2013-05-16 08:36:00,
2013-05-16 01:41:00,58.7,47.1,29.92,SSE,157,0.0,5.0,65,0.00,,,0.00,WUHU21623XXSP,2013-05-16 08:41:00,
2013-05-16 01:46:00,58.5,46.9,29.91,South,180,0.0,5.0,65,0.00,,,0.00,WUHU21623XXSP,2013-05-16 08:46:00,
2013-05-16 01:51:00,58.5,46.9,29.91,South,180,0.0,6.8,65,0.00,,,0.00,WUHU21623XXSP,2013-05-16 08:51:00,
2013-05-16 01:56:00,58.5,46.9,29.91,South,180,0.0,6.8,65,0.00,,,0.00,WUHU21623XXSP,2013-05-16 08:56:00,
2013-05-16 02:01:00,58.7,47.1,29.91,South,180,0.0,6.3,65,0.00,,,0.00,WUHU21623XXSP,2013-05-16 09:01:00,
2013-05-16 02:06:00,58.5,46.9,29.91,South,180,0.0,5.5,65,0.00,,,0.00,WUHU21623XXSP,2013-05-16 09:06:00,
2013-05-16 02:11:00,58.3,46.3,29.91,East,90,0.0,4.0,64,0.00,,,0.00,WUHU21623XXSP,2013-05-16 09:11:00,
2013-05-16 02:16:00,58.7,47.1,29.90,South,180,0.0,6.8,65,0.00,,,0.00,WUHU21623XXSP,2013-05-16 09:16:00,
2013-05-16 02:21:00,58.5,46.9,29.91,South,180,0.0,6.8,65,0.00,,,0.00,WUHU21623XXSP,2013-05-16 09:21:00,
2013-05-16 02:26:00,58.5,46.9,29.90,South,180,0.0,1.8,65,0.00,,,0.00,WUHU21623XXSP,2013-05-16 09:26:00,
2013-05-16 02:31:00,58.3,46.7,29.90,South,180,0.0,1.8,65,0.00,,,0.00,WUHU21623XXSP,2013-05-16 09:31:00,
2013-05-16 02:36:00,58.1,46.5,29.90,SSE,157,0.0,3.3,65,0.00,,,0.00,WUHU21623XXSP,2013-05-16 09:36:00,
2013-05-16 02:41:00,58.3,46.7,29.90,South,180,0.0,4.0,65,0.00,,,0.00,WUHU21623XXSP,2013-05-16 09:41:00,
2013-05-16 02:46:00,58.1,46.5,29.90,South,180,2.8,5.0,65,0.00,,,0.00,WUHU21623XXSP,2013-05-16 09:46:00,
2013-05-16 02:51:00,58.0,46.8,29.90,South,180,0.0,5.0,66,0.00,,,0.00,WUHU21623XXSP,2013-05-16 09:51:00,
2013-05-16 02:56:00,58.1,46.5,29.90,ESE,112,0.0,0.0,65,0.00,,,0.00,WUHU21623XXSP,2013-05-16 09:56:00,
2013-05-16 03:01:00,58.1,46.5,29.91,South,180,0.0,5.0,65,0.00,,,0.00,WUHU21623XXSP,2013-05-16 10:01:00,
2013-05-16 03:06:00,58.1,46.9,29.91,South,180,0.0,5.0,66,0.00,,,0.00,WUHU21623XXSP,2013-05-16 10:06:00,
2013-05-16 03:11:00,58.1,46.9,29.90,SSE,157,0.0,4.5,66,0.00,,,0.00,WUHU21623XXSP,2013-05-16 10:11:00,
2013-05-16 03:16:00,58.1,46.9,29.90,SW,225,2.8,5.5,66,0.00,,,0.00,WUHU21623XXSP,2013-05-16 10:16:00,
2013-05-16 03:21:00,58.1,46.9,29.91,SSW,202,0.0,5.5,66,0.00,,,0.00,WUHU21623XXSP,2013-05-16 10:21:00,
2013-05-16 03:26:00,58.1,46.9,29.91,SSE,157,0.0,2.8,66,0.00,,,0.00,WUHU21623XXSP,2013-05-16 10:26:00,
2013-05-16 03:31:00,57.8,47.0,29.91,South,180,0.0,9.5,67,0.00,,,0.00,WUHU21623XXSP,2013-05-16 10:31:00,
2013-05-16 03:37:00,57.8,46.7,29.91,SSE,157,0.0,9.5,66,0.00,,,0.00,WUHU21623XXSP,2013-05-16 10:37:00,
2013-05-16 03:42:00,58.0,46.8,29.91,South,180,0.0,5.5,66,0.00,,,0.00,WUHU21623XXSP,2013-05-16 10:42:00,
2013-05-16 03:46:00,57.8,46.7,29.91,SE,135,0.0,7.3,66,0.00,,,0.00,WUHU21623XXSP,2013-05-16 10:46:00,
2013-05-16 03:51:00,58.0,46.8,29.90,SSE,157,0.0,7.3,66,0.00,,,0.00,WUHU21623XXSP,2013-05-16 10:51:00,
2013-05-16 03:56:00,58.1,46.9,29.91,SSE,157,0.0,4.5,66,0.00,,,0.00,WUHU21623XXSP,2013-05-16 10:56:00,
2013-05-16 04:01:00,58.1,46.9,29.91,SE,135,0.0,4.5,66,0.00,,,0.00,WUHU21623XXSP,2013-05-16 11:01:00,
2013-05-16 04:06:00,58.3,47.1,29.90,ESE,112,0.0,4.5,66,0.00,,,0.00,WUHU21623XXSP,2013-05-16 11:06:00,
2013-05-16 04:11:00,58.3,47.1,29.90,SSE,157,0.0,6.3,66,0.00,,,0.00,WUHU21623XXSP,2013-05-16 11:11:00,
2013-05-16 04:16:00,58.1,46.9,29.91,SSE,157,0.0,6.3,66,0.00,,,0.00,WUHU21623XXSP,2013-05-16 11:16:00,
2013-05-16 04:21:00,58.0,46.8,29.90,SSE,157,0.0,4.0,66,0.00,,,0.00,WUHU21623XXSP,2013-05-16 11:21:00,
2013-05-16 04:26:00,58.1,46.9,29.91,SSE,157,0.0,4.0,66,0.00,,,0.00,WUHU21623XXSP,2013-05-16 11:26:00,
2013-05-16 04:31:00,58.0,46.8,29.91,SSE,157,0.0,4.0,66,0.00,,,0.00,WUHU21623XXSP,2013-05-16 11:31:00,
2013-05-16 04:39:00,58.0,47.2,29.90,South,180,0.0,3.3,67,0.00,,,0.00,WUHU21623XXSP,2013-05-16 11:39:00,
2013-05-16 04:44:00,58.0,47.2,29.90,South,180,0.0,5.0,67,0.00,,,0.00,WUHU21623XXSP,2013-05-16 11:44:00,
2013-05-16 04:49:00,58.1,47.3,29.91,SE,135,0.0,5.0,67,0.00,,,0.00,WUHU21623XXSP,2013-05-16 11:49:00,
2013-05-16 04:54:00,58.1,47.3,29.90,SSE,157,3.3,4.0,67,0.00,,,0.00,WUHU21623XXSP,2013-05-16 11:54:00,
2013-05-16 04:59:00,58.1,47.3,29.90,SSE,157,0.0,4.0,67,0.00,,,0.00,WUHU21623XXSP,2013-05-16 11:59:00,
2013-05-16 05:04:00,58.1,47.3,29.90,SW,225,0.0,7.3,67,0.00,,,0.00,WUHU21623XXSP,2013-05-16 12:04:00,
2013-05-16 05:09:00,58.0,47.2,29.90,South,180,0.0,7.3,67,0.00,,,0.00,WUHU21623XXSP,2013-05-16 12:09:00,
2013-05-16 05:14:00,58.0,47.2,29.91,South,180,0.0,5.0,67,0.00,,,0.00,WUHU21623XXSP,2013-05-16 12:14:00,
2013-05-16 05:19:00,58.0,47.2,29.91,SE,135,0.0,5.0,67,0.00,,,0.00,WUHU21623XXSP,2013-05-16 12:19:00,
2013-05-16 05:24:00,58.1,47.3,29.91,South,180,0.0,0.0,67,0.00,,,0.00,WUHU21623XXSP,2013-05-16 12:24:00,
2013-05-16 05:29:00,58.1,47.3,29.91,NE,45,0.0,0.0,67,0.00,,,0.00,WUHU21623XXSP,2013-05-16 12:29:00,
2013-05-16 05:34:00,58.3,47.5,29.91,ENE,67,0.0,4.0,67,0.00,,,0.00,WUHU21623XXSP,2013-05-16 12:34:00,
2013-05-16 05:39:00,58.1,47.3,29.91,SSE,157,0.0,4.0,67,0.00,,,0.00,WUHU21623XXSP,2013-05-16 12:39:00,
2013-05-16 05:44:00,58.1,47.3,29.91,SSW,202,0.0,3.3,67,0.00,,,0.00,WUHU21623XXSP,2013-05-16 12:44:00,
2013-05-16 05:49:00,58.1,47.3,29.91,SSE,157,0.0,2.3,67,0.00,,,0.00,WUHU21623XXSP,2013-05-16 12:49:00,
2013-05-16 05:54:00,58.5,47.7,29.91,SSE,157,0.0,2.3,67,0.00,,,0.00,WUHU21623XXSP,2013-05-16 12:54:00,
2013-05-16 05:59:00,58.3,47.1,29.91,ESE,112,0.0,0.0,66,0.00,,,0.00,WUHU21623XXSP,2013-05-16 12:59:00,
2013-05-16 06:04:00,58.3,47.5,29.91,South,180,0.0,3.3,67,0.00,,,0.00,WUHU21623XXSP,2013-05-16 13:04:00,
2013-05-16 06:09:00,58.3,47.5,29.91,SSE,157,0.0,3.3,67,0.00,,,0.00,WUHU21623XXSP,2013-05-16 13:09:00,
2013-05-16 06:14:00,58.3,47.5,29.92,South,180,0.0,2.8,67,0.00,,,0.00,WUHU21623XXSP,2013-05-16 13:14:00,
2013-05-16 06:19:00,58.3,47.5,29.92,SSE,157,0.0,2.8,67,0.00,,,0.00,WUHU21623XXSP,2013-05-16 13:19:00,
2013-05-16 06:24:00,58.1,47.7,29.92,ENE,67,0.0,0.0,68,0.00,,,0.00,WUHU21623XXSP,2013-05-16 13:24:00,
2013-05-16 06:29:00,58.1,47.3,29.92,SSE,157,0.0,5.0,67,0.00,,,0.00,WUHU21623XXSP,2013-05-16 13:29:00,
2013-05-16 06:34:00,58.3,47.9,29.91,South,180,0.0,5.0,68,0.00,,,0.00,WUHU21623XXSP,2013-05-16 13:34:00,
2013-05-16 06:39:00,58.5,47.7,29.91,SSE,157,0.0,0.0,67,0.00,,,0.00,WUHU21623XXSP,2013-05-16 13:39:00,
2013-05-16 06:44:00,58.5,47.7,29.92,SSE,157,0.0,4.0,67,0.00,,,0.00,WUHU21623XXSP,2013-05-16 13:44:00,
2013-05-16 06:49:00,58.3,47.5,29.93,SSE,157,0.0,4.0,67,0.00,,,0.00,WUHU21623XXSP,2013-05-16 13:49:00,
2013-05-16 06:55:00,58.5,48.1,29.93,South,180,0.0,0.0,68,0.00,,,0.00,WUHU21623XXSP,2013-05-16 13:55:00,
2013-05-16 07:00:00,58.5,48.1,29.93,SSE,157,0.0,0.0,68,0.00,,,0.00,WUHU21623XXSP,2013-05-16 14:00:00,
2013-05-16 07:05:00,58.5,48.5,29.93,SSE,157,0.0,0.0,69,0.00,,,0.00,WUHU21623XXSP,2013-05-16 14:05:00,
2013-05-16 07:10:00,58.7,48.3,29.94,South,180,0.0,0.0,68,0.00,,,0.00,WUHU21623XXSP,2013-05-16 14:10:00,
2013-05-16 07:15:00,58.7,48.3,29.94,East,90,0.0,0.0,68,0.00,,,0.00,WUHU21623XXSP,2013-05-16 14:15:00,
2013-05-16 07:20:00,59.0,48.6,29.94,South,180,0.0,9.5,68,0.00,,,0.00,WUHU21623XXSP,2013-05-16 14:20:00,
2013-05-16 07:25:00,59.2,48.4,29.94,South,180,0.0,9.5,67,0.00,,,0.00,WUHU21623XXSP,2013-05-16 14:25:00,
2013-05-16 07:30:00,59.2,48.4,29.94,South,180,3.3,3.3,67,0.00,,,0.00,WUHU21623XXSP,2013-05-16 14:30:00,
2013-05-16 07:35:00,59.0,48.6,29.94,South,180,0.0,3.3,68,0.00,,,0.00,WUHU21623XXSP,2013-05-16 14:35:00,
2013-05-16 07:40:00,59.2,48.8,29.94,South,180,0.0,0.0,68,0.00,,,0.00,WUHU21623XXSP,2013-05-16 14:40:00,
2013-05-16 07:45:00,59.0,48.6,29.94,SSE,157,0.0,2.3,68,0.00,,,0.00,WUHU21623XXSP,2013-05-16 14:45:00,
2013-05-16 07:50:00,59.4,49.0,29.94,SSE,157,0.0,4.0,68,0.00,,,0.00,WUHU21623XXSP,2013-05-16 14:50:00,
2013-05-16 07:55:00,59.6,49.2,29.94,South,180,4.0,4.0,68,0.00,,,0.00,WUHU21623XXSP,2013-05-16 14:55:00,
2013-05-16 08:00:00,59.6,49.2,29.94,SSE,157,0.0,4.0,68,0.00,,,0.00,WUHU21623XXSP,2013-05-16 15:00:00,
2013-05-16 08:05:00,59.6,49.2,29.94,SSE,157,0.0,1.8,68,0.00,,,0.00,WUHU21623XXSP,2013-05-16 15:05:00,
2013-05-16 08:10:00,59.6,49.2,29.95,SSE,157,0.0,10.0,68,0.00,,,0.00,WUHU21623XXSP,2013-05-16 15:10:00,
2013-05-16 08:15:00,59.8,49.4,29.95,SE,135,0.0,10.0,68,0.00,,,0.00,WUHU21623XXSP,2013-05-16 15:15:00,
2013-05-16 08:20:00,59.8,49.4,29.95,SSE,157,0.0,7.8,68,0.00,,,0.00,WUHU21623XXSP,2013-05-16 15:20:00,
2013-05-16 08:25:00,59.6,49.6,29.95,South,180,0.0,4.5,69,0.00,,,0.00,WUHU21623XXSP,2013-05-16 15:25:00,
2013-05-16 08:30:00,59.6,49.6,29.95,SSE,157,0.0,8.5,69,0.00,,,0.00,WUHU21623XXSP,2013-05-16 15:30:00,
2013-05-16 08:35:00,59.6,49.6,29.96,South,180,0.0,8.5,69,0.00,,,0.00,WUHU21623XXSP,2013-05-16 15:35:00,
2013-05-16 08:40:00,59.8,49.7,29.96,SE,135,0.0,4.0,69,0.00,,,0.00,WUHU21623XXSP,2013-05-16 15:40:00,
2013-05-16 08:45:00,59.9,49.8,29.96,SSE,157,0.0,7.3,69,0.00,,,0.00,WUHU21623XXSP,2013-05-16 15:45:00,
2013-05-16 08:50:00,59.9,49.8,29.96,South,180,0.0,7.3,69,0.00,,,0.00,WUHU21623XXSP,2013-05-16 15:50:00,
2013-05-16 08:55:00,60.1,50.0,29.96,South,180,0.0,8.5,69,0.00,,,0.00,WUHU21623XXSP,2013-05-16 15:55:00,
2013-05-16 09:00:00,60.1,49.6,29.96,SE,135,0.0,9.5,68,0.00,,,0.00,WUHU21623XXSP,2013-05-16 16:00:00,
2013-05-16 09:05:00,60.1,50.0,29.96,SSE,157,0.0,9.5,69,0.00,,,0.00,WUHU21623XXSP,2013-05-16 16:05:00,
2013-05-16 09:10:00,60.3,50.2,29.97,SW,225,0.0,5.5,69,0.00,,,0.00,WUHU21623XXSP,2013-05-16 16:10:00,
2013-05-16 09:15:00,60.1,50.0,29.97,SSE,157,0.0,10.8,69,0.00,,,0.00,WUHU21623XXSP,2013-05-16 16:15:00,
2013-05-16 09:20:00,60.1,50.0,29.97,SSE,157,0.0,10.8,69,0.00,,,0.00,WUHU21623XXSP,2013-05-16 16:20:00,
2013-05-16 09:25:00,60.1,50.4,29.97,SE,135,0.0,6.8,70,0.00,,,0.00,WUHU21623XXSP,2013-05-16 16:25:00,
2013-05-16 09:30:00,59.9,50.2,29.97,SSW,202,0.0,14.0,70,0.00,,,0.00,WUHU21623XXSP,2013-05-16 16:30:00,
2013-05-16 09:35:00,60.1,50.4,29.97,South,180,1.8,14.0,70,0.00,,,0.00,WUHU21623XXSP,2013-05-16 16:35:00,
2013-05-16 09:40:00,60.5,50.8,29.97,South,180,0.0,5.5,70,0.00,,,0.00,WUHU21623XXSP,2013-05-16 16:40:00,
2013-05-16 09:45:00,60.5,50.8,29.97,SSE,157,0.0,7.3,70,0.00,,,0.00,WUHU21623XXSP,2013-05-16 16:45:00,
2013-05-16 09:50:00,60.7,50.6,29.97,SSW,202,3.3,11.8,69,0.00,,,0.00,WUHU21623XXSP,2013-05-16 16:50:00,
2013-05-16 09:55:00,60.7,51.0,29.97,SSE,157,4.0,12.8,70,0.00,,,0.00,WUHU21623XXSP,2013-05-16 16:55:00,
2013-05-16 10:00:00,61.3,51.2,29.97,SSW,202,4.5,12.8,69,0.00,,,0.00,WUHU21623XXSP,2013-05-16 17:00:00,
2013-05-16 10:05:00,61.2,50.7,29.97,SSW,202,2.8,7.3,68,0.00,,,0.00,WUHU21623XXSP,2013-05-16 17:05:00,
2013-05-16 10:10:00,61.2,50.7,29.97,South,180,0.0,9.0,68,0.00,,,0.00,WUHU21623XXSP,2013-05-16 17:10:00,
2013-05-16 10:16:00,61.1,50.6,29.97,South,180,6.3,11.8,68,0.00,,,0.00,WUHU21623XXSP,2013-05-16 17:16:00,
2013-05-16 10:21:00,61.6,51.1,29.97,South,180,0.0,11.8,68,0.00,,,0.00,WUHU21623XXSP,2013-05-16 17:21:00,
2013-05-16 10:26:00,61.9,51.0,29.97,South,180,0.0,12.3,67,0.00,,,0.00,WUHU21623XXSP,2013-05-16 17:26:00,
2013-05-16 10:31:00,61.9,50.6,29.97,South,180,0.0,16.3,66,0.00,,,0.00,WUHU21623XXSP,2013-05-16 17:31:00,
2013-05-16 10:36:00,62.0,50.7,29.97,SE,135,0.0,16.3,66,0.00,,,0.00,WUHU21623XXSP,2013-05-16 17:36:00,
2013-05-16 10:41:00,62.3,50.9,29.97,SE,135,0.0,6.8,66,0.00,,,0.00,WUHU21623XXSP,2013-05-16 17:41:00,
2013-05-16 10:46:00,62.7,51.3,29.97,South,180,4.0,4.0,66,0.00,,,0.00,WUHU21623XXSP,2013-05-16 17:46:00,
2013-05-16 10:51:00,62.4,50.6,29.97,South,180,0.0,5.5,65,0.00,,,0.00,WUHU21623XXSP,2013-05-16 17:51:00,
2013-05-16 10:56:00,62.8,51.0,29.97,South,180,0.0,5.5,65,0.00,,,0.00,WUHU21623XXSP,2013-05-16 17:56:00,
2013-05-16 11:01:00,62.8,51.0,29.97,ESE,112,0.0,16.3,65,0.00,,,0.00,WUHU21623XXSP,2013-05-16 18:01:00,
2013-05-16 11:06:00,62.8,51.0,29.97,SSE,157,0.0,16.3,65,0.00,,,0.00,WUHU21623XXSP,2013-05-16 18:06:00,
2013-05-16 11:11:00,62.9,51.1,29.97,SW,225,2.8,10.0,65,0.00,,,0.00,WUHU21623XXSP,2013-05-16 18:11:00,
2013-05-16 11:16:00,63.5,51.3,29.96,SE,135,12.3,12.3,64,0.00,,,0.00,WUHU21623XXSP,2013-05-16 18:16:00,
2013-05-16 11:22:00,63.6,50.9,29.96,South,180,9.5,12.3,63,0.00,,,0.00,WUHU21623XXSP,2013-05-16 18:22:00,
2013-05-16 11:27:00,64.3,51.6,29.96,East,90,0.0,15.0,63,0.00,,,0.00,WUHU21623XXSP,2013-05-16 18:27:00,
2013-05-16 11:32:00,64.4,50.8,29.96,SE,135,0.0,15.0,61,0.00,,,0.00,WUHU21623XXSP,2013-05-16 18:32:00,
2013-05-16 11:37:00,64.3,51.2,29.97,SSE,157,0.0,11.8,62,0.00,,,0.00,WUHU21623XXSP,2013-05-16 18:37:00,
2013-05-16 11:42:00,64.9,51.3,29.96,SSE,157,5.0,11.8,61,0.00,,,0.00,WUHU21623XXSP,2013-05-16 18:42:00,
2013-05-16 11:47:00,64.9,50.8,29.96,SSE,157,0.0,12.3,60,0.00,,,0.00,WUHU21623XXSP,2013-05-16 18:47:00,
2013-05-16 11:52:00,65.1,51.0,29.96,South,180,0.0,12.3,60,0.00,,,0.00,WUHU21623XXSP,2013-05-16 18:52:00,
2013-05-16 11:57:00,64.8,50.7,29.97,SSE,157,0.0,8.5,60,0.00,,,0.00,WUHU21623XXSP,2013-05-16 18:57:00,
2013-05-16 12:02:00,65.3,50.7,29.96,SSE,157,0.0,8.5,59,0.00,,,0.00,WUHU21623XXSP,2013-05-16 19:02:00,
2013-05-16 12:07:00,65.9,50.9,29.95,South,180,0.0,9.5,58,0.00,,,0.00,WUHU21623XXSP,2013-05-16 19:07:00,
2013-05-16 12:12:00,67.4,51.8,29.95,South,180,3.3,9.5,57,0.00,,,0.00,WUHU21623XXSP,2013-05-16 19:12:00,
2013-05-16 12:17:00,67.7,51.0,29.96,SSE,157,3.3,9.0,55,0.00,,,0.00,WUHU21623XXSP,2013-05-16 19:17:00,
2013-05-16 12:22:00,68.2,51.6,29.95,South,180,4.0,7.3,55,0.00,,,0.00,WUHU21623XXSP,2013-05-16 19:22:00,
2013-05-16 12:27:00,68.2,51.5,29.95,SSW,202,5.5,7.8,55,0.00,,,0.00,WUHU21623XXSP,2013-05-16 19:27:00,
2013-05-16 12:32:00,68.2,51.5,29.95,SE,135,2.8,11.3,55,0.00,,,0.00,WUHU21623XXSP,2013-05-16 19:32:00,
2013-05-16 12:37:00,68.6,51.9,29.95,SSE,157,4.0,14.0,55,0.00,,,0.00,WUHU21623XXSP,2013-05-16 19:37:00,
2013-05-16 12:42:00,68.9,51.7,29.95,SE,135,1.8,14.0,54,0.00,,,0.00,WUHU21623XXSP,2013-05-16 19:42:00,
2013-05-16 12:47:00,69.1,51.9,29.94,SW,225,7.8,12.3,54,0.00,,,0.00,WUHU21623XXSP,2013-05-16 19:47:00,
2013-05-16 12:52:00,69.8,52.0,29.95,South,180,2.3,12.3,53,0.00,,,0.00,WUHU21623XXSP,2013-05-16 19:52:00,
2013-05-16 12:57:00,69.5,51.2,29.94,South,180,1.8,12.8,52,0.00,,,0.00,WUHU21623XXSP,2013-05-16 19:57:00,
2013-05-16 13:02:00,69.9,52.1,29.94,South,180,2.8,14.5,53,0.00,,,0.00,WUHU21623XXSP,2013-05-16 20:02:00,
2013-05-16 13:07:00,69.3,50.5,29.94,SSE,157,0.0,14.5,51,0.00,,,0.00,WUHU21623XXSP,2013-05-16 20:07:00,
2013-05-16 13:12:00,69.0,50.7,29.94,SE,135,0.0,12.3,52,0.00,,,0.00,WUHU21623XXSP,2013-05-16 20:12:00,
2013-05-16 13:17:00,68.9,50.6,29.94,SE,135,1.8,12.3,52,0.00,,,0.00,WUHU21623XXSP,2013-05-16 20:17:00,
2013-05-16 13:22:00,68.4,49.6,29.94,SSW,202,0.0,7.3,51,0.00,,,0.00,WUHU21623XXSP,2013-05-16 20:22:00,
2013-05-16 13:27:00,68.3,49.6,29.94,SSE,157,5.5,9.5,51,0.00,,,0.00,WUHU21623XXSP,2013-05-16 20:27:00,
2013-05-16 13:32:00,68.3,50.6,29.93,NNE,22,0.0,9.5,53,0.00,,,0.00,WUHU21623XXSP,2013-05-16 20:32:00,
2013-05-16 13:37:00,68.6,49.8,29.93,South,180,0.0,12.3,51,0.00,,,0.00,WUHU21623XXSP,2013-05-16 20:37:00,
2013-05-16 13:42:00,69.0,50.2,29.92,East,90,6.3,12.3,51,0.00,,,0.00,WUHU21623XXSP,2013-05-16 20:42:00,
2013-05-16 13:47:00,69.3,50.0,29.93,SSE,157,0.0,12.3,50,0.00,,,0.00,WUHU21623XXSP,2013-05-16 20:47:00,
2013-05-16 13:52:00,69.1,49.7,29.93,SSW,202,3.3,9.5,50,0.00,,,0.00,WUHU21623XXSP,2013-05-16 20:52:00,
2013-05-16 13:57:00,69.2,49.3,29.92,South,180,7.3,25.8,49,0.00,,,0.00,WUHU21623XXSP,2013-05-16 20:57:00,
2013-05-16 14:02:00,69.4,50.0,29.92,SE,135,0.0,25.8,50,0.00,,,0.00,WUHU21623XXSP,2013-05-16 21:02:00,
2013-05-16 14:07:00,69.3,50.0,29.92,SSE,157,0.0,18.0,50,0.00,,,0.00,WUHU21623XXSP,2013-05-16 21:07:00,
2013-05-16 14:12:00,69.6,49.6,29.91,East,90,4.5,9.5,49,0.00,,,0.00,WUHU21623XXSP,2013-05-16 21:12:00,
2013-05-16 14:17:00,70.0,50.0,29.91,South,180,0.0,9.5,49,0.00,,,0.00,WUHU21623XXSP,2013-05-16 21:17:00,
2013-05-16 14:22:00,69.8,50.3,29.92,SSW,202,5.0,16.3,50,0.00,,,0.00,WUHU21623XXSP,2013-05-16 21:22:00,
2013-05-16 14:27:00,70.1,50.1,29.91,SSE,157,0.0,16.3,49,0.00,,,0.00,WUHU21623XXSP,2013-05-16 21:27:00,
2013-05-16 14:32:00,70.3,50.3,29.91,SSE,157,0.0,10.8,49,0.00,,,0.00,WUHU21623XXSP,2013-05-16 21:32:00,
2013-05-16 14:37:00,69.5,50.1,29.91,SSW,202,7.3,7.8,50,0.00,,,0.00,WUHU21623XXSP,2013-05-16 21:37:00,
2013-05-16 14:42:00,70.1,50.1,29.91,ESE,112,0.0,11.3,49,0.00,,,0.00,WUHU21623XXSP,2013-05-16 21:42:00,
2013-05-16 14:47:00,71.0,50.4,29.90,SSE,157,4.0,11.3,48,0.00,,,0.00,WUHU21623XXSP,2013-05-16 21:47:00,
2013-05-16 14:52:00,71.0,49.8,29.90,SE,135,0.0,13.5,47,0.00,,,0.00,WUHU21623XXSP,2013-05-16 21:52:00,
2013-05-16 14:57:00,71.8,50.5,29.90,NE,45,6.3,24.0,47,0.00,,,0.00,WUHU21623XXSP,2013-05-16 21:57:00,
2013-05-16 15:02:00,72.9,50.9,29.90,SSE,157,0.0,24.0,46,0.00,,,0.00,WUHU21623XXSP,2013-05-16 22:02:00,
2013-05-16 15:07:00,72.3,49.1,29.90,WSW,247,0.0,10.8,44,0.00,,,0.00,WUHU21623XXSP,2013-05-16 22:07:00,
2013-05-16 15:12:00,71.7,49.8,29.90,SW,225,0.0,10.8,46,0.00,,,0.00,WUHU21623XXSP,2013-05-16 22:12:00,
2013-05-16 15:17:00,71.5,49.0,29.89,SSE,157,0.0,6.3,45,0.00,,,0.00,WUHU21623XXSP,2013-05-16 22:17:00,
2013-05-16 15:22:00,71.1,48.6,29.89,South,180,3.3,7.3,45,0.00,,,0.00,WUHU21623XXSP,2013-05-16 22:22:00,
2013-05-16 15:27:00,70.9,49.1,29.89,SSE,157,0.0,7.3,46,0.00,,,0.00,WUHU21623XXSP,2013-05-16 22:27:00,
2013-05-16 15:32:00,71.2,49.3,29.89,East,90,0.0,6.8,46,0.00,,,0.00,WUHU21623XXSP,2013-05-16 22:32:00,
2013-05-16 15:37:00,71.0,49.2,29.89,South,180,0.0,23.0,46,0.00,,,0.00,WUHU21623XXSP,2013-05-16 22:37:00,
2013-05-16 15:42:00,71.1,49.3,29.88,SW,225,3.3,23.0,46,0.00,,,0.00,WUHU21623XXSP,2013-05-16 22:42:00,
2013-05-16 15:47:00,71.2,49.4,29.88,ENE,67,4.0,11.3,46,0.00,,,0.00,WUHU21623XXSP,2013-05-16 22:47:00,
2013-05-16 15:52:00,72.0,50.1,29.88,ENE,67,0.0,16.3,46,0.00,,,0.00,WUHU21623XXSP,2013-05-16 22:52:00,
2013-05-16 15:57:00,73.2,51.2,29.87,East,90,6.8,16.3,46,0.00,,,0.00,WUHU21623XXSP,2013-05-16 22:57:00,
2013-05-16 16:02:00,73.5,49.6,29.87,South,180,0.0,12.8,43,0.00,,,0.00,WUHU21623XXSP,2013-05-16 23:02:00,
2013-05-16 16:07:00,72.9,49.6,29.87,South,180,6.8,9.5,44,0.00,,,0.00,WUHU21623XXSP,2013-05-16 23:07:00,
2013-05-16 16:12:00,73.7,50.4,29.86,NW,315,0.0,9.5,44,0.00,,,0.00,WUHU21623XXSP,2013-05-16 23:12:00,
2013-05-16 16:17:00,73.4,50.1,29.87,ENE,67,4.0,9.5,44,0.00,,,0.00,WUHU21623XXSP,2013-05-16 23:17:00,
2013-05-16 16:22:00,73.9,49.9,29.86,SW,225,0.0,11.3,43,0.00,,,0.00,WUHU21623XXSP,2013-05-16 23:22:00,
2013-05-16 16:27:00,73.6,49.0,29.86,SSW,202,7.3,11.3,42,0.00,,,0.00,WUHU21623XXSP,2013-05-16 23:27:00,
2013-05-16 16:32:00,73.7,49.1,29.86,WSW,247,0.0,8.5,42,0.00,,,0.00,WUHU21623XXSP,2013-05-16 23:32:00,
2013-05-16 16:37:00,74.0,49.4,29.86,SW,225,0.0,25.3,42,0.00,,,0.00,WUHU21623XXSP,2013-05-16 23:37:00,
2013-05-16 16:42:00,73.6,49.7,29.86,South,180,9.5,25.3,43,0.00,,,0.00,WUHU21623XXSP,2013-05-16 23:42:00,
2013-05-16 16:47:00,73.2,49.3,29.87,South,180,0.0,17.3,43,0.00,,,0.00,WUHU21623XXSP,2013-05-16 23:47:00,
2013-05-16 16:52:00,73.3,48.7,29.86,South,180,0.0,16.8,42,0.00,,,0.00,WUHU21623XXSP,2013-05-16 23:52:00,
2013-05-16 16:57:00,73.3,49.4,29.86,SSE,157,0.0,16.8,43,0.00,,,0.00,WUHU21623XXSP,2013-05-16 23:57:00,
2013-05-16 17:02:00,73.1,48.6,29.86,SSE,157,0.0,9.0,42,0.00,,,0.00,WUHU21623XXSP,2013-05-17 00:02:00,
2013-05-16 17:07:00,73.3,48.8,29.86,South,180,3.3,9.0,42,0.00,,,0.00,WUHU21623XXSP,2013-05-17 00:07:00,
2013-05-16 17:12:00,73.7,48.4,29.86,SW,225,0.0,11.8,41,0.00,,,0.00,WUHU21623XXSP,2013-05-17 00:12:00,
2013-05-16 17:17:00,73.9,48.6,29.86,South,180,0.0,11.8,41,0.00,,,0.00,WUHU21623XXSP,2013-05-17 00:17:00,
2013-05-16 17:22:00,74.4,48.4,29.86,South,180,0.0,12.8,40,0.00,,,0.00,WUHU21623XXSP,2013-05-17 00:22:00,
2013-05-16 17:27:00,74.2,48.2,29.85,ESE,112,0.0,12.8,40,0.00,,,0.00,WUHU21623XXSP,2013-05-17 00:27:00,
2013-05-16 17:32:00,73.8,48.6,29.85,South,180,0.0,5.0,41,0.00,,,0.00,WUHU21623XXSP,2013-05-17 00:32:00,
2013-05-16 17:37:00,73.4,48.2,29.85,South,180,0.0,12.3,41,0.00,,,0.00,WUHU21623XXSP,2013-05-17 00:37:00,
2013-05-16 17:42:00,73.0,48.5,29.85,SSW,202,0.0,12.3,42,0.00,,,0.00,WUHU21623XXSP,2013-05-17 00:42:00,
2013-05-16 17:47:00,72.9,48.4,29.85,South,180,0.0,7.3,42,0.00,,,0.00,WUHU21623XXSP,2013-05-17 00:47:00,
2013-05-16 17:52:00,72.9,49.0,29.85,SSE,157,0.0,7.3,43,0.00,,,0.00,WUHU21623XXSP,2013-05-17 00:52:00,
2013-05-16 17:57:00,72.2,48.4,29.85,West,270,5.5,20.3,43,0.00,,,0.00,WUHU21623XXSP,2013-05-17 00:57:00,
2013-05-16 18:04:00,72.0,48.2,29.85,SW,225,0.0,20.8,43,0.00,,,0.00,WUHU21623XXSP,2013-05-17 01:04:00,
2013-05-16 18:09:00,71.9,48.7,29.85,South,180,7.3,20.8,44,0.00,,,0.00,WUHU21623XXSP,2013-05-17 01:09:00,
2013-05-16 18:14:00,71.9,48.8,29.85,South,180,0.0,16.8,44,0.00,,,0.00,WUHU21623XXSP,2013-05-17 01:14:00,
2013-05-16 18:19:00,71.5,47.8,29.85,SSW,202,4.0,16.8,43,0.00,,,0.00,WUHU21623XXSP,2013-05-17 01:19:00,
2013-05-16 18:24:00,71.4,47.7,29.86,South,180,3.3,15.0,43,0.00,,,0.00,WUHU21623XXSP,2013-05-17 01:24:00,
2013-05-16 18:29:00,70.9,47.3,29.86,SSW,202,5.5,29.8,43,0.00,,,0.00,WUHU21623XXSP,2013-05-17 01:29:00,
2013-05-16 18:34:00,70.6,47.6,29.86,South,180,3.3,29.8,44,0.00,,,0.00,WUHU21623XXSP,2013-05-17 01:34:00,
2013-05-16 18:39:00,69.9,46.3,29.86,SSE,157,2.8,16.8,43,0.00,,,0.00,WUHU21623XXSP,2013-05-17 01:39:00,
2013-05-16 18:44:00,69.8,46.8,29.85,WSW,247,0.0,12.8,44,0.00,,,0.00,WUHU21623XXSP,2013-05-17 01:44:00,
2013-05-16 18:49:00,69.3,45.8,29.86,SSW,202,0.0,15.0,43,0.00,,,0.00,WUHU21623XXSP,2013-05-17 01:49:00,
2013-05-16 18:54:00,68.9,46.0,29.86,South,180,6.3,19.0,44,0.00,,,0.00,WUHU21623XXSP,2013-05-17 01:54:00,
2013-05-16 18:59:00,68.6,46.4,29.86,SE,135,0.0,19.0,45,0.00,,,0.00,WUHU21623XXSP,2013-05-17 01:59:00,
2013-05-16 19:04:00,68.6,46.4,29.86,SSW,202,0.0,15.8,45,0.00,,,0.00,WUHU21623XXSP,2013-05-17 02:04:00,
2013-05-16 19:09:00,68.4,46.8,29.86,South,180,1.8,18.0,46,0.00,,,0.00,WUHU21623XXSP,2013-05-17 02:09:00,
2013-05-16 19:14:00,68.0,46.4,29.86,South,180,2.8,18.0,46,0.00,,,0.00,WUHU21623XXSP,2013-05-17 02:14:00,
2013-05-16 19:19:00,67.5,46.0,29.86,SSW,202,0.0,35.3,46,0.00,,,0.00,WUHU21623XXSP,2013-05-17 02:19:00,
2013-05-16 19:24:00,67.7,46.7,29.86,SSE,157,0.0,35.3,47,0.00,,,0.00,WUHU21623XXSP,2013-05-17 02:24:00,
2013-05-16 19:29:00,67.5,47.1,29.86,South,180,0.0,15.8,48,0.00,,,0.00,WUHU21623XXSP,2013-05-17 02:29:00,
2013-05-16 19:34:00,67.5,47.1,29.87,South,180,0.0,6.3,48,0.00,,,0.00,WUHU21623XXSP,2013-05-17 02:34:00,
2013-05-16 19:39:00,67.3,47.5,29.87,South,180,3.3,10.0,49,0.00,,,0.00,WUHU21623XXSP,2013-05-17 02:39:00,
2013-05-16 19:44:00,66.8,47.6,29.86,South,180,0.0,10.0,50,0.00,,,0.00,WUHU21623XXSP,2013-05-17 02:44:00,
2013-05-16 19:49:00,66.6,48.0,29.87,SW,225,4.0,7.8,51,0.00,,,0.00,WUHU21623XXSP,2013-05-17 02:49:00,
2013-05-16 19:54:00,66.4,47.8,29.87,SW,225,0.0,10.8,51,0.00,,,0.00,WUHU21623XXSP,2013-05-17 02:54:00,
2013-05-16 19:59:00,66.2,47.6,29.87,South,180,0.0,10.8,51,0.00,,,0.00,WUHU21623XXSP,2013-05-17 02:59:00,
2013-05-16 20:04:00,65.9,47.3,29.87,SE,135,0.0,7.3,51,0.00,,,0.00,WUHU21623XXSP,2013-05-17 03:04:00,
2013-05-16 20:10:00,65.7,47.7,29.88,SSE,157,0.0,7.3,52,0.00,,,0.00,WUHU21623XXSP,2013-05-17 03:10:00,
2013-05-16 20:15:00,65.3,47.8,29.87,South,180,0.0,5.5,53,0.00,,,0.00,WUHU21623XXSP,2013-05-17 03:15:00,
2013-05-16 20:20:00,64.6,45.6,29.88,SSW,202,0.0,7.3,50,0.00,,,0.00,WUHU21623XXSP,2013-05-17 03:20:00,
2013-05-16 20:25:00,64.4,45.4,29.89,SSW,202,0.0,9.5,50,0.00,,,0.00,WUHU21623XXSP,2013-05-17 03:25:00,
2013-05-16 20:30:00,64.1,45.1,29.88,West,270,0.0,9.5,50,0.00,,,0.00,WUHU21623XXSP,2013-05-17 03:30:00,
2013-05-16 20:35:00,63.7,45.3,29.88,SSE,157,0.0,11.3,51,0.00,,,0.00,WUHU21623XXSP,2013-05-17 03:35:00,
2013-05-16 20:40:00,63.2,45.3,29.89,SSW,202,0.0,11.3,52,0.00,,,0.00,WUHU21623XXSP,2013-05-17 03:40:00,
2013-05-16 20:45:00,62.8,45.5,29.88,South,180,0.0,32.5,53,0.00,,,0.00,WUHU21623XXSP,2013-05-17 03:45:00,
2013-05-16 20:50:00,62.6,45.3,29.89,SSW,202,0.0,32.5,53,0.00,,,0.00,WUHU21623XXSP,2013-05-17 03:50:00,
2013-05-16 20:55:00,62.6,45.8,29.89,SSE,157,0.0,5.5,54,0.00,,,0.00,WUHU21623XXSP,2013-05-17 03:55:00,
2013-05-16 21:00:00,61.9,45.1,29.89,South,180,0.0,7.3,54,0.00,,,0.00,WUHU21623XXSP,2013-05-17 04:00:00,
2013-05-16 21:01:00,61.9,45.1,29.90,SSE,157,0.0,7.3,54,0.00,,,0.00,WUHU21623XXSP,2013-05-17 04:01:00,
2013-05-16 21:06:00,61.7,45.5,29.89,South,180,0.0,7.8,55,0.00,,,0.00,WUHU21623XXSP,2013-05-17 04:06:00,
2013-05-16 21:11:00,61.6,45.4,29.90,SSE,157,0.0,7.8,55,0.00,,,0.00,WUHU21623XXSP,2013-05-17 04:11:00,
2013-05-16 21:16:00,61.6,45.8,29.90,South,180,0.0,4.0,56,0.00,,,0.00,WUHU21623XXSP,2013-05-17 04:16:00,
2013-05-16 21:21:00,61.6,45.8,29.90,SSE,157,0.0,6.3,56,0.00,,,0.00,WUHU21623XXSP,2013-05-17 04:21:00,
2013-05-16 21:26:00,60.8,46.0,29.90,South,180,0.0,6.3,58,0.00,,,0.00,WUHU21623XXSP,2013-05-17 04:26:00,
2013-05-16 21:31:00,60.8,46.0,29.90,South,180,0.0,12.8,58,0.00,,,0.00,WUHU21623XXSP,2013-05-17 04:31:00,
2013-05-16 21:36:00,60.5,46.2,29.90,SSE,157,0.0,12.8,59,0.00,,,0.00,WUHU21623XXSP,2013-05-17 04:36:00,
2013-05-16 21:41:00,60.1,45.8,29.91,SSE,157,0.0,5.0,59,0.00,,,0.00,WUHU21623XXSP,2013-05-17 04:41:00,
2013-05-16 21:46:00,60.1,46.3,29.91,South,180,0.0,5.0,60,0.00,,,0.00,WUHU21623XXSP,2013-05-17 04:46:00,
2013-05-16 21:51:00,60.1,46.3,29.90,South,180,0.0,4.0,60,0.00,,,0.00,WUHU21623XXSP,2013-05-17 04:51:00,
2013-05-16 21:56:00,59.9,46.6,29.91,South,180,0.0,2.8,61,0.00,,,0.00,WUHU21623XXSP,2013-05-17 04:56:00,
2013-05-16 22:01:00,59.8,46.5,29.91,South,180,0.0,2.8,61,0.00,,,0.00,WUHU21623XXSP,2013-05-17 05:01:00,
2013-05-16 22:06:00,59.6,46.7,29.91,South,180,0.0,2.8,62,0.00,,,0.00,WUHU21623XXSP,2013-05-17 05:06:00,
2013-05-16 22:11:00,59.2,46.7,29.92,South,180,7.3,7.3,63,0.00,,,0.00,WUHU21623XXSP,2013-05-17 05:11:00,
2013-05-16 22:16:00,59.2,46.7,29.92,South,180,0.0,7.3,63,0.00,,,0.00,WUHU21623XXSP,2013-05-17 05:16:00,
2013-05-16 22:21:00,59.0,46.6,29.92,South,180,0.0,7.3,63,0.00,,,0.00,WUHU21623XXSP,2013-05-17 05:21:00,
2013-05-16 22:26:00,58.5,46.5,29.92,SSE,157,0.0,9.5,64,0.00,,,0.00,WUHU21623XXSP,2013-05-17 05:26:00,
2013-05-16 22:31:00,58.1,46.1,29.93,SSE,157,0.0,9.5,64,0.00,,,0.00,WUHU21623XXSP,2013-05-17 05:31:00,
2013-05-16 22:36:00,58.0,46.0,29.92,South,180,0.0,6.8,64,0.00,,,0.00,WUHU21623XXSP,2013-05-17 05:36:00,
2013-05-16 22:41:00,58.0,46.0,29.92,SE,135,0.0,6.8,64,0.00,,,0.00,WUHU21623XXSP,2013-05-17 05:41:00,
2013-05-16 22:46:00,58.0,46.0,29.93,SSW,202,7.8,7.8,64,0.00,,,0.00,WUHU21623XXSP,2013-05-17 05:46:00,
2013-05-16 22:51:00,57.6,45.6,29.92,SE,135,0.0,7.8,64,0.00,,,0.00,WUHU21623XXSP,2013-05-17 05:51:00,
2013-05-16 22:56:00,57.4,45.5,29.92,SSW,202,0.0,7.8,64,0.00,,,0.00,WUHU21623XXSP,2013-05-17 05:56:00,
2013-05-16 23:01:00,57.4,45.5,29.93,South,180,3.3,7.3,64,0.00,,,0.00,WUHU21623XXSP,2013-05-17 06:01:00,
2013-05-16 23:06:00,57.2,45.3,29.92,SW,225,0.0,8.5,64,0.00,,,0.00,WUHU21623XXSP,2013-05-17 06:06:00,
2013-05-16 23:11:00,57.1,45.6,29.92,South,180,0.0,9.0,65,0.00,,,0.00,WUHU21623XXSP,2013-05-17 06:11:00,
2013-05-16 23:16:00,57.2,45.7,29.92,SW,225,0.0,9.0,65,0.00,,,0.00,WUHU21623XXSP,2013-05-17 06:16:00,
2013-05-16 23:21:00,57.2,45.7,29.92,SSE,157,0.0,4.0,65,0.00,,,0.00,WUHU21623XXSP,2013-05-17 06:21:00,
2013-05-16 23:26:00,57.4,45.9,29.92,South,180,0.0,6.8,65,0.00,,,0.00,WUHU21623XXSP,2013-05-17 06:26:00,
2013-05-16 23:31:00,57.4,45.9,29.92,South,180,0.0,6.8,65,0.00,,,0.00,WUHU21623XXSP,2013-05-17 06:31:00,
2013-05-16 23:36:00,57.4,45.9,29.92,South,180,0.0,0.0,65,0.00,,,0.00,WUHU21623XXSP,2013-05-17 06:36:00,
2013-05-16 23:41:00,57.4,46.3,29.93,South,180,0.0,0.0,66,0.00,,,0.00,WUHU21623XXSP,2013-05-17 06:41:00,
2013-05-16 23:46:00,57.2,46.5,29.93,South,180,0.0,2.3,67,0.00,,,0.00,WUHU21623XXSP,2013-05-17 06:46:00,
2013-05-16 23:51:00,57.1,46.8,29.92,SSE,157,0.0,2.3,68,0.00,,,0.00,WUHU21623XXSP,2013-05-17 06:51:00,
2013-05-16 23:56:00,56.9,46.6,29.92,South,180,0.0,0.0,68,0.00,,,0.00,WUHU21623XXSP,2013-05-17 06:56:00,